createdAt,value
2022-10-17T00:00:18.135Z,80.67
2022-10-17T00:02:44.646Z,80.77
2022-10-17T00:05:12.148Z,80.90
2022-10-17T00:07:39.207Z,80.37
2022-10-17T00:10:07.299Z,81.64
2022-10-17T00:12:34.601Z,81.20
2022-10-17T00:15:03.963Z,81.95
2022-10-17T00:17:31.541Z,81.35
2022-10-17T00:20:01.661Z,80.89
2022-10-17T00:22:28.499Z,81.00
2022-10-17T00:24:55.072Z,80.77
2022-10-17T00:27:21.624Z,80.73
2022-10-17T00:29:49.917Z,81.41
2022-10-17T00:32:16.917Z,82.10
2022-10-17T00:34:43.671Z,81.35
2022-10-17T00:37:10.515Z,81.34
2022-10-17T00:39:37.176Z,81.11
2022-10-17T00:42:03.957Z,81.52
2022-10-17T00:44:30.588Z,80.40
2022-10-17T00:46:59.231Z,81.68
2022-10-17T00:49:28.747Z,81.67
2022-10-17T00:51:59.261Z,81.57
2022-10-17T00:54:33.539Z,81.13
2022-10-17T00:57:00.732Z,81.77
2022-10-17T00:59:28.547Z,81.74
2022-10-17T01:02:06.609Z,80.98
2022-10-17T01:04:33.141Z,80.77
2022-10-17T01:06:59.685Z,81.50
2022-10-17T01:09:27.297Z,81.74
2022-10-17T01:12:03.752Z,81.57
2022-10-17T01:14:40.602Z,81.53
2022-10-17T01:17:34.089Z,82.05
2022-10-17T01:20:19.547Z,82.69
2022-10-17T01:23:01.072Z,81.70
2022-10-17T01:25:49.121Z,83.10
2022-10-17T01:28:54.435Z,83.25
2022-10-17T01:31:25.864Z,82.37
2022-10-17T01:34:17.107Z,83.02
2022-10-17T01:36:52.221Z,82.87
2022-10-17T01:39:32.528Z,83.68
2022-10-17T01:42:27.864Z,83.82
2022-10-17T01:44:57.524Z,82.99
2022-10-17T01:47:29.610Z,83.66
2022-10-17T01:50:02.840Z,83.60
2022-10-17T01:52:37.001Z,83.70
2022-10-17T01:55:09.551Z,83.71
2022-10-17T01:57:40.881Z,83.47
2022-10-17T02:00:13.721Z,84.35
2022-10-17T02:02:43.296Z,83.78
2022-10-17T02:05:10.226Z,84.51
2022-10-17T02:07:36.797Z,85.09
2022-10-17T02:10:09.951Z,85.34
2022-10-17T02:12:54.297Z,85.05
2022-10-17T02:15:32.459Z,84.25
2022-10-17T02:18:14.187Z,85.77
2022-10-17T02:20:52.028Z,85.59
2022-10-17T02:23:30.481Z,85.82
2022-10-17T02:26:16.642Z,85.58
2022-10-17T02:28:47.500Z,84.85
2022-10-17T02:31:20.158Z,85.38
2022-10-17T02:33:54.679Z,86.11
2022-10-17T02:36:26.592Z,85.76
2022-10-17T02:38:55.198Z,85.55
2022-10-17T02:41:24.521Z,86.09
2022-10-17T02:43:53.086Z,85.44
2022-10-17T02:46:23.115Z,86.14
2022-10-17T02:49:22.001Z,85.63
2022-10-17T02:52:12.985Z,86.30
2022-10-17T02:54:51.298Z,85.85
2022-10-17T02:57:25.103Z,85.71
2022-10-17T02:59:52.407Z,86.09
2022-10-17T03:02:19.091Z,86.35
2022-10-17T03:04:47.244Z,86.52
2022-10-17T03:07:13.801Z,86.21
2022-10-17T03:09:40.470Z,86.27
2022-10-17T03:12:06.974Z,85.94
2022-10-17T03:14:33.540Z,87.12
2022-10-17T03:17:00.171Z,86.88
2022-10-17T03:19:26.683Z,86.81
2022-10-17T03:21:53.438Z,86.37
2022-10-17T03:24:19.965Z,86.19
2022-10-17T03:29:17.932Z,86.42
2022-10-17T03:31:44.488Z,86.85
2022-10-17T03:34:11.060Z,86.32
2022-10-17T03:36:37.647Z,86.76
2022-10-17T03:39:04.257Z,86.67
2022-10-17T03:41:30.781Z,86.93
2022-10-17T03:43:57.298Z,87.14
2022-10-17T03:46:23.852Z,86.97
2022-10-17T03:48:50.410Z,87.84
2022-10-17T03:51:16.975Z,88.06
2022-10-17T03:53:43.484Z,87.23
2022-10-17T03:56:22.066Z,87.89
2022-10-17T03:58:48.894Z,87.85
2022-10-17T04:01:17.142Z,87.10
2022-10-17T04:03:44.311Z,87.21
2022-10-17T04:06:12.784Z,87.13
2022-10-17T04:08:39.963Z,87.16
2022-10-17T04:11:08.450Z,86.58
2022-10-17T04:13:35.827Z,87.13
2022-10-17T04:16:05.273Z,86.77
2022-10-17T04:18:32.365Z,86.91
2022-10-17T04:21:01.798Z,87.29
2022-10-17T04:23:28.460Z,87.76
2022-10-17T04:25:59.309Z,87.76
2022-10-17T04:28:27.590Z,87.58
2022-10-17T04:31:11.922Z,87.89
2022-10-17T04:33:38.808Z,88.09
2022-10-17T04:36:08.350Z,87.70
2022-10-17T04:38:34.951Z,86.67
2022-10-17T04:41:03.678Z,87.25
2022-10-17T04:43:31.568Z,87.32
2022-10-17T04:46:02.499Z,87.30
2022-10-17T04:48:29.814Z,87.42
2022-10-17T04:51:02.036Z,87.58
2022-10-17T04:53:30.563Z,87.44
2022-10-17T04:55:57.371Z,87.55
2022-10-17T04:58:24.536Z,87.68
2022-10-17T05:00:51.192Z,87.38
2022-10-17T05:03:17.859Z,87.61
2022-10-17T05:05:44.411Z,87.57
2022-10-17T05:08:11.765Z,87.18
2022-10-17T05:10:39.769Z,88.08
2022-10-17T05:13:07.276Z,87.48
2022-10-17T05:15:34.163Z,87.84
2022-10-17T05:18:00.863Z,87.95
2022-10-17T05:20:27.799Z,87.40
2022-10-17T05:22:54.616Z,88.01
2022-10-17T05:25:21.863Z,87.48
2022-10-17T05:27:48.437Z,87.74
2022-10-17T05:30:14.967Z,87.37
2022-10-17T05:32:41.597Z,87.02
2022-10-17T05:35:08.271Z,87.08
2022-10-17T05:37:34.921Z,87.18
2022-10-17T05:40:01.748Z,87.80
2022-10-17T05:42:28.743Z,87.48
2022-10-17T05:44:55.473Z,87.23
2022-10-17T05:47:22.064Z,87.52
2022-10-17T05:49:52.337Z,86.90
2022-10-17T05:52:19.286Z,86.65
2022-10-17T05:54:45.960Z,87.34
2022-10-17T05:57:12.687Z,86.87
2022-10-17T05:59:39.253Z,87.33
2022-10-17T06:02:05.984Z,86.78
2022-10-17T06:04:32.694Z,86.68
2022-10-17T06:06:59.223Z,86.26
2022-10-17T06:09:25.743Z,86.42
2022-10-17T06:11:52.420Z,86.11
2022-10-17T06:14:18.929Z,86.02
2022-10-17T06:16:45.476Z,85.44
2022-10-17T06:19:12.096Z,86.27
2022-10-17T06:21:39.163Z,86.16
2022-10-17T06:24:06.085Z,85.61
2022-10-17T06:26:32.699Z,85.08
2022-10-17T06:28:59.300Z,85.64
2022-10-17T06:31:25.895Z,85.37
2022-10-17T06:33:52.478Z,85.04
2022-10-17T06:36:19.322Z,85.08
2022-10-17T06:38:46.062Z,84.54
2022-10-17T06:41:14.689Z,84.81
2022-10-17T06:43:48.564Z,85.06
2022-10-17T06:46:17.781Z,84.00
2022-10-17T06:48:44.859Z,83.68
2022-10-17T06:51:12.540Z,83.38
2022-10-17T06:53:40.504Z,83.21
2022-10-17T06:56:08.476Z,81.99
2022-10-17T06:58:39.076Z,81.96
2022-10-17T07:03:36.458Z,81.75
2022-10-17T07:06:03.476Z,81.95
2022-10-17T07:08:30.020Z,81.92
2022-10-17T07:10:57.300Z,81.54
2022-10-17T07:13:24.328Z,81.86
2022-10-17T07:15:51.087Z,81.89
2022-10-17T07:18:17.679Z,82.37
2022-10-17T07:20:44.201Z,81.90
2022-10-17T07:23:10.702Z,81.82
2022-10-17T07:25:40.041Z,81.70
2022-10-17T07:28:06.916Z,81.29
2022-10-17T07:30:33.470Z,80.73
2022-10-17T07:33:00.246Z,80.28
2022-10-17T07:35:26.800Z,79.89
2022-10-17T07:37:53.378Z,80.01
2022-10-17T07:40:20.045Z,80.03
2022-10-17T07:42:46.728Z,79.61
2022-10-17T07:45:13.386Z,79.42
2022-10-17T07:47:39.913Z,79.47
2022-10-17T07:50:06.834Z,79.51
2022-10-17T07:52:33.401Z,79.35
2022-10-17T07:55:00.170Z,79.31
2022-10-17T07:57:26.731Z,78.95
2022-10-17T07:59:54.506Z,78.57
2022-10-17T08:02:25.858Z,78.43
2022-10-17T08:04:53.160Z,78.19
2022-10-17T08:07:24.090Z,78.09
2022-10-17T08:09:53.567Z,77.76
2022-10-17T08:12:20.459Z,77.37
2022-10-17T08:14:48.159Z,77.11
2022-10-17T08:17:14.764Z,77.23
2022-10-17T08:19:41.375Z,76.79
2022-10-17T08:22:08.403Z,76.70
2022-10-17T08:24:35.007Z,76.70
2022-10-17T08:27:01.793Z,76.09
2022-10-17T08:29:28.471Z,76.31
2022-10-17T08:32:00.893Z,76.21
2022-10-17T08:34:28.569Z,76.19
2022-10-17T08:36:55.191Z,75.74
2022-10-17T08:39:21.998Z,75.53
2022-10-17T08:42:16.416Z,75.16
2022-10-17T08:44:57.693Z,74.03
2022-10-17T08:47:29.413Z,74.06
2022-10-17T08:50:03.192Z,73.64
2022-10-17T08:52:38.005Z,71.92
2022-10-17T08:55:13.431Z,72.57
2022-10-17T08:57:41.204Z,71.70
2022-10-17T09:00:17.112Z,71.74
2022-10-17T09:03:09.693Z,69.96
2022-10-17T09:05:45.632Z,70.53
2022-10-17T09:08:41.931Z,69.75
2022-10-17T09:11:34.182Z,68.71
2022-10-17T09:14:27.396Z,68.49
2022-10-17T09:17:15.611Z,68.07
2022-10-17T09:19:52.886Z,67.03
2022-10-17T09:22:24.898Z,65.70
2022-10-17T09:24:57.298Z,64.21
2022-10-17T09:27:28.150Z,64.81
2022-10-17T09:30:26.832Z,63.94
2022-10-17T09:33:00.656Z,62.20
2022-10-17T09:35:28.453Z,62.46
2022-10-17T09:37:55.237Z,61.70
2022-10-17T09:40:27.586Z,61.59
2022-10-17T09:42:54.181Z,61.18
2022-10-17T09:45:30.726Z,60.74
2022-10-17T09:48:09.129Z,60.11
2022-10-17T09:50:36.471Z,59.96
2022-10-17T09:53:29.461Z,59.45
2022-10-17T09:56:02.944Z,58.88
2022-10-17T09:58:50.842Z,59.06
2022-10-17T10:01:24.497Z,58.14
2022-10-17T10:04:11.665Z,57.73
2022-10-17T10:06:40.417Z,56.92
2022-10-17T10:11:56.693Z,56.82
2022-10-17T10:14:35.860Z,56.51
2022-10-17T10:17:05.091Z,55.87
2022-10-17T10:19:33.802Z,55.81
2022-10-17T10:22:02.874Z,55.29
2022-10-17T10:24:31.207Z,54.79
2022-10-17T10:27:01.564Z,54.83
2022-10-17T10:29:34.255Z,54.37
2022-10-17T10:32:11.790Z,54.30
2022-10-17T10:34:47.569Z,54.12
2022-10-17T10:37:28.542Z,53.33
2022-10-17T10:39:58.519Z,53.67
2022-10-17T10:42:32.457Z,53.19
2022-10-17T10:45:43.249Z,53.21
2022-10-17T10:48:30.759Z,53.19
2022-10-17T10:51:06.359Z,52.90
2022-10-17T10:54:05.677Z,50.49
2022-10-17T10:56:43.773Z,52.15
2022-10-17T10:59:14.165Z,52.22
2022-10-17T11:01:43.716Z,50.84
2022-10-17T11:05:07.870Z,51.16
2022-10-17T11:08:03.512Z,50.36
2022-10-17T11:10:51.201Z,50.81
2022-10-17T11:13:26.470Z,50.36
2022-10-17T11:16:22.499Z,50.15
2022-10-17T11:18:53.436Z,50.46
2022-10-17T11:21:38.557Z,49.86
2022-10-17T11:24:25.784Z,49.75
2022-10-17T11:27:04.195Z,50.08
2022-10-17T11:29:35.216Z,49.47
2022-10-17T11:32:17.908Z,49.58
2022-10-17T11:34:48.676Z,49.65
2022-10-17T11:37:21.931Z,48.83
2022-10-17T11:40:06.351Z,48.88
2022-10-17T11:42:48.277Z,49.03
2022-10-17T11:45:19.814Z,48.90
2022-10-17T11:47:51.707Z,48.21
2022-10-17T11:53:29.071Z,48.01
2022-10-17T11:56:00.007Z,47.92
2022-10-17T11:58:37.643Z,48.34
2022-10-17T12:01:21.538Z,47.91
2022-10-17T12:04:14.018Z,47.74
2022-10-17T12:07:01.138Z,47.72
2022-10-17T12:09:56.943Z,47.88
2022-10-17T12:12:27.201Z,47.11
2022-10-17T12:14:54.706Z,47.47
2022-10-17T12:17:39.691Z,47.32
2022-10-17T12:20:24.304Z,47.80
2022-10-17T12:22:56.646Z,47.37
2022-10-17T12:25:29.943Z,46.77
2022-10-17T12:28:09.739Z,47.04
2022-10-17T12:30:36.400Z,47.21
2022-10-17T12:33:23.823Z,46.33
2022-10-17T12:36:11.415Z,46.68
2022-10-17T12:38:38.071Z,46.47
2022-10-17T12:41:05.861Z,46.41
2022-10-17T12:43:38.952Z,46.44
2022-10-17T12:46:08.489Z,46.33
2022-10-17T12:48:35.698Z,46.47
2022-10-17T12:54:08.319Z,46.17
2022-10-17T12:56:36.722Z,46.14
2022-10-17T12:59:12.091Z,46.28
2022-10-17T13:01:40.599Z,45.61
2022-10-17T13:04:10.705Z,46.32
2022-10-17T13:06:44.923Z,45.88
2022-10-17T13:09:28.703Z,45.52
2022-10-17T13:11:58.261Z,45.85
2022-10-17T13:14:26.714Z,46.04
2022-10-17T13:17:01.840Z,46.17
2022-10-17T13:19:39.859Z,46.19
2022-10-17T13:22:17.926Z,45.86
2022-10-17T13:24:44.979Z,45.94
2022-10-17T13:27:29.736Z,46.67
2022-10-17T13:29:58.080Z,46.48
2022-10-17T13:32:27.150Z,46.62
2022-10-17T13:35:11.969Z,46.83
2022-10-17T13:37:41.335Z,46.47
2022-10-17T13:40:40.758Z,46.76
2022-10-17T13:43:04.194Z,46.55
2022-10-17T13:45:34.010Z,46.90
2022-10-17T13:48:03.938Z,47.00
2022-10-17T13:50:44.250Z,47.16
2022-10-17T13:53:21.288Z,47.02
2022-10-17T13:56:26.920Z,46.56
2022-10-17T13:58:51.999Z,46.32
2022-10-17T14:01:20.393Z,46.34
2022-10-17T14:03:51.756Z,46.35
2022-10-17T14:06:25.764Z,46.62
2022-10-17T14:08:52.296Z,46.40
2022-10-17T14:11:41.558Z,46.32
2022-10-17T14:14:20.578Z,46.87
2022-10-17T14:16:47.363Z,46.81
2022-10-17T14:19:36.028Z,46.62
2022-10-17T14:22:21.019Z,47.36
2022-10-17T14:24:48.724Z,47.17
2022-10-17T14:27:52.546Z,46.95
2022-10-17T14:30:55.301Z,47.45
2022-10-17T14:33:27.583Z,47.38
2022-10-17T14:36:01.222Z,47.56
2022-10-17T14:38:29.603Z,47.48
2022-10-17T14:41:41.411Z,47.74
2022-10-17T14:44:15.562Z,47.43
2022-10-17T14:46:49.707Z,47.93
2022-10-17T14:49:24.689Z,47.98
2022-10-17T14:52:18.867Z,48.37
2022-10-17T14:54:56.281Z,48.61
2022-10-17T14:57:29.340Z,48.80
2022-10-17T14:59:57.151Z,48.73
2022-10-17T15:02:26.106Z,48.79
2022-10-17T15:04:53.587Z,48.86
2022-10-17T15:07:24.074Z,48.89
2022-10-17T15:09:52.762Z,49.09
2022-10-17T15:12:22.217Z,49.33
2022-10-17T15:14:49.142Z,49.93
2022-10-17T15:17:22.390Z,50.04
2022-10-17T15:19:50.490Z,50.00
2022-10-17T15:22:18.388Z,50.40
2022-10-17T15:24:47.981Z,50.41
2022-10-17T15:27:21.649Z,50.81
2022-10-17T15:29:49.175Z,50.90
2022-10-17T15:32:16.206Z,51.39
2022-10-17T15:34:42.772Z,51.78
2022-10-17T15:37:18.494Z,51.96
2022-10-17T15:39:46.846Z,52.61
2022-10-17T15:42:13.365Z,52.79
2022-10-17T15:44:43.841Z,53.08
2022-10-17T15:47:22.583Z,53.55
2022-10-17T15:49:49.275Z,53.22
2022-10-17T15:52:16.242Z,53.47
2022-10-17T15:54:42.810Z,53.79
2022-10-17T15:57:18.625Z,53.88
2022-10-17T15:59:47.196Z,54.37
2022-10-17T16:02:18.582Z,54.60
2022-10-17T16:04:45.282Z,54.70
2022-10-17T16:07:12.074Z,54.90
2022-10-17T16:09:38.919Z,55.07
2022-10-17T16:12:07.380Z,54.79
2022-10-17T16:14:34.316Z,54.88
2022-10-17T16:17:01.233Z,54.89
2022-10-17T16:19:29.952Z,54.65
2022-10-17T16:22:04.342Z,54.89
2022-10-17T16:24:31.264Z,54.90
2022-10-17T16:26:57.987Z,54.99
2022-10-17T16:29:24.522Z,54.84
2022-10-17T16:31:51.089Z,54.76
2022-10-17T16:34:17.693Z,54.55
2022-10-17T16:36:44.322Z,54.32
2022-10-17T16:39:11.016Z,54.31
2022-10-17T16:41:39.288Z,54.06
2022-10-17T16:44:11.260Z,53.82
2022-10-17T16:46:38.073Z,54.22
2022-10-17T16:49:05.965Z,53.99
2022-10-17T16:51:35.974Z,54.16
2022-10-17T16:54:04.519Z,54.16
2022-10-17T16:56:32.714Z,53.77
2022-10-17T16:59:00.781Z,53.83
2022-10-17T17:01:29.395Z,53.94
2022-10-17T17:03:56.809Z,54.57
2022-10-17T17:06:26.895Z,54.33
2022-10-17T17:08:54.617Z,54.77
2022-10-17T17:11:24.517Z,54.84
2022-10-17T17:13:51.119Z,54.41
2022-10-17T17:16:23.359Z,55.01
2022-10-17T17:18:54.575Z,55.46
2022-10-17T17:21:21.072Z,54.99
2022-10-17T17:23:47.940Z,55.39
2022-10-17T17:26:17.395Z,56.01
2022-10-17T17:28:44.272Z,56.40
2022-10-17T17:31:14.137Z,56.48
2022-10-17T17:33:42.030Z,56.41
2022-10-17T17:36:12.273Z,56.45
2022-10-17T17:38:41.210Z,56.60
2022-10-17T17:41:07.732Z,57.36
2022-10-17T17:43:35.776Z,57.57
2022-10-17T17:46:05.028Z,57.79
2022-10-17T17:48:31.690Z,57.83
2022-10-17T17:51:02.704Z,58.05
2022-10-17T17:53:29.302Z,57.85
2022-10-17T17:56:10.976Z,58.61
2022-10-17T17:58:37.635Z,58.57
2022-10-17T18:01:14.353Z,58.78
2022-10-17T18:03:41.790Z,58.71
2022-10-17T18:06:08.993Z,58.99
2022-10-17T18:08:36.067Z,59.50
2022-10-17T18:11:03.331Z,59.62
2022-10-17T18:13:30.079Z,59.93
2022-10-17T18:16:01.413Z,60.50
2022-10-17T18:18:29.823Z,60.56
2022-10-17T18:20:56.687Z,60.58
2022-10-17T18:23:23.929Z,60.47
2022-10-17T18:25:58.716Z,60.71
2022-10-17T18:28:25.434Z,60.64
2022-10-17T18:30:52.216Z,60.83
2022-10-17T18:33:18.863Z,60.74
2022-10-17T18:35:45.797Z,61.42
2022-10-17T18:38:12.496Z,60.94
2022-10-17T18:40:39.018Z,60.85
2022-10-17T18:43:05.556Z,60.78
2022-10-17T18:45:32.164Z,61.33
2022-10-17T18:47:58.867Z,61.58
2022-10-17T18:50:25.829Z,61.11
2022-10-17T18:52:52.346Z,61.70
2022-10-17T18:55:19.793Z,62.06
2022-10-17T18:57:50.068Z,61.66
2022-10-17T19:00:17.773Z,61.52
2022-10-17T19:02:44.502Z,61.75
2022-10-17T19:05:11.067Z,61.83
2022-10-17T19:07:37.582Z,61.96
2022-10-17T19:10:04.328Z,62.17
2022-10-17T19:12:31.011Z,62.42
2022-10-17T19:14:57.569Z,62.78
2022-10-17T19:17:24.056Z,62.76
2022-10-17T19:19:52.308Z,63.17
2022-10-17T19:22:19.030Z,63.30
2022-10-17T19:24:45.566Z,63.17
2022-10-17T19:27:12.425Z,63.28
2022-10-17T19:29:43.463Z,63.51
2022-10-17T19:32:15.705Z,63.12
2022-10-17T19:34:44.719Z,63.59
2022-10-17T19:37:11.282Z,63.84
2022-10-17T19:39:37.877Z,63.82
2022-10-17T19:42:06.862Z,64.21
2022-10-17T19:44:34.291Z,64.04
2022-10-17T19:47:00.861Z,64.26
2022-10-17T19:49:27.446Z,63.92
2022-10-17T19:51:54.004Z,64.11
2022-10-17T19:54:20.513Z,63.67
2022-10-17T19:56:47.535Z,63.61
2022-10-17T19:59:15.931Z,63.37
2022-10-17T20:01:43.391Z,63.38
2022-10-17T20:04:11.135Z,63.50
2022-10-17T20:06:39.079Z,63.35
2022-10-17T20:09:07.334Z,63.23
2022-10-17T20:11:35.553Z,63.49
2022-10-17T20:14:02.359Z,63.13
2022-10-17T20:16:33.916Z,63.08
2022-10-17T20:19:07.492Z,63.62
2022-10-17T20:21:37.336Z,63.18
2022-10-17T20:24:07.023Z,63.20
2022-10-17T20:26:39.025Z,63.59
2022-10-17T20:29:18.422Z,63.99
2022-10-17T20:31:46.368Z,63.91
2022-10-17T20:34:15.452Z,64.25
2022-10-17T20:36:42.496Z,63.59
2022-10-17T20:39:11.242Z,63.82
2022-10-17T20:41:37.909Z,63.19
2022-10-17T20:44:04.798Z,63.11
2022-10-17T20:46:44.822Z,62.94
2022-10-17T20:49:16.852Z,63.17
2022-10-17T20:51:43.842Z,62.70
2022-10-17T20:54:11.680Z,63.20
2022-10-17T20:56:39.101Z,62.74
2022-10-17T20:59:11.003Z,62.75
2022-10-17T21:01:37.612Z,62.36
2022-10-17T21:06:52.218Z,62.14
2022-10-17T21:09:19.398Z,62.69
2022-10-17T21:11:46.041Z,62.61
2022-10-17T21:14:12.706Z,62.30
2022-10-17T21:16:40.282Z,62.11
2022-10-17T21:19:07.128Z,61.47
2022-10-17T21:21:36.241Z,61.79
2022-10-17T21:24:05.737Z,61.94
2022-10-17T21:26:34.235Z,61.61
2022-10-17T21:29:05.474Z,61.74
2022-10-17T21:31:33.774Z,61.65
2022-10-17T21:34:04.998Z,61.63
2022-10-17T21:36:31.527Z,61.60
2022-10-17T21:38:58.436Z,61.25
2022-10-17T21:41:27.689Z,61.27
2022-10-17T21:44:01.318Z,61.27
2022-10-17T21:46:28.939Z,61.75
2022-10-17T21:48:56.197Z,61.59
2022-10-17T21:51:24.535Z,61.91
2022-10-17T21:53:52.668Z,61.84
2022-10-17T21:56:22.078Z,61.86
2022-10-17T21:58:50.048Z,61.92
2022-10-17T22:01:19.462Z,62.47
2022-10-17T22:03:52.425Z,62.98
2022-10-17T22:09:20.742Z,64.68
2022-10-17T22:11:49.136Z,64.37
2022-10-17T22:14:18.584Z,64.86
2022-10-17T22:16:46.536Z,65.06
2022-10-17T22:19:16.031Z,65.40
2022-10-17T22:21:42.693Z,64.39
2022-10-17T22:24:13.859Z,64.74
2022-10-17T22:26:40.828Z,64.43
2022-10-17T22:29:08.500Z,64.34
2022-10-17T22:31:36.284Z,64.21
2022-10-17T22:34:05.117Z,63.73
2022-10-17T22:36:32.529Z,63.66
2022-10-17T22:38:59.128Z,63.44
2022-10-17T22:41:25.686Z,62.76
2022-10-17T22:43:52.268Z,62.65
2022-10-17T22:46:18.910Z,62.05
2022-10-17T22:48:45.482Z,62.15
2022-10-17T22:51:12.270Z,62.60
2022-10-17T22:53:39.201Z,62.45
2022-10-17T22:56:09.379Z,62.39
2022-10-17T22:58:35.916Z,63.00
2022-10-17T23:01:03.948Z,62.38
2022-10-17T23:03:31.419Z,62.73
2022-10-17T23:05:58.740Z,61.72
2022-10-17T23:08:26.262Z,61.73
2022-10-17T23:10:53.179Z,60.87
2022-10-17T23:13:21.404Z,60.93
2022-10-17T23:15:56.319Z,61.25
2022-10-17T23:18:24.613Z,60.99
2022-10-17T23:20:51.673Z,60.74
2022-10-17T23:23:18.947Z,60.90
2022-10-17T23:25:45.956Z,60.42
2022-10-17T23:28:12.685Z,60.67
2022-10-17T23:30:39.979Z,60.81
2022-10-17T23:33:06.969Z,61.10
2022-10-17T23:35:34.182Z,60.72
2022-10-17T23:38:00.679Z,60.09
2022-10-17T23:40:28.070Z,60.50
2022-10-17T23:42:56.216Z,60.59
2022-10-17T23:45:22.895Z,60.92
2022-10-17T23:47:49.547Z,60.99
2022-10-17T23:50:16.464Z,60.85
2022-10-17T23:52:43.505Z,60.93
2022-10-17T23:55:10.723Z,60.93
2022-10-17T23:57:37.239Z,61.03
